Hosford, Florida
Current Conditions -  °F | °C
As of 1:35 PM on Monday 20 Oct 2014 (Local Time) from K2J9 Reporting Station
Scattered Clouds Scattered Clouds  
Wind Chill: 30°   Ceiling: Unl
Heat Index: 31°   Visibility: 10mi
Dew Point: 18°   Wind: 0mph
Humidity: 48%   Direction: NA
Pressure: 30.03"   Gusts: NA
Location:  30.39°N, 84.8°W
Report Text: K2J9 201735Z AUTO 00000KT 10SM SCT030 30/18 A3003 RMK AO1
Loading
Personal Weather Stations






























Interactive Weather Map
Tropical Storm Tracking
New forecast layout! Learn more

10-Day Weather Forecast

Advertisements
Track Severe Weather on mobile